sensor_id;sensor_type;location;lat;lon;timestamp;P1;durP1;ratioP1;P2;durP2;ratioP2
26211;SDS011;13951;49.516;6.094;2024-03-22T00:01:49;3.73;;;2.60;;
26211;SDS011;13951;49.516;6.094;2024-03-22T00:04:22;4.80;;;2.90;;
26211;SDS011;13951;49.516;6.094;2024-03-22T00:06:54;4.97;;;2.70;;
26211;SDS011;13951;49.516;6.094;2024-03-22T00:09:26;3.63;;;2.73;;
26211;SDS011;13951;49.516;6.094;2024-03-22T00:12:15;3.23;;;2.40;;
26211;SDS011;13951;49.516;6.094;2024-03-22T00:14:47;3.30;;;2.37;;
26211;SDS011;13951;49.516;6.094;2024-03-22T00:17:19;5.53;;;2.77;;
26211;SDS011;13951;49.516;6.094;2024-03-22T00:19:52;5.10;;;2.87;;
26211;SDS011;13951;49.516;6.094;2024-03-22T00:22:23;3.57;;;2.47;;
26211;SDS011;13951;49.516;6.094;2024-03-22T00:29:19;3.47;;;2.50;;
26211;SDS011;13951;49.516;6.094;2024-03-22T00:32:47;3.80;;;2.60;;
26211;SDS011;13951;49.516;6.094;2024-03-22T00:36:36;8.30;;;2.70;;
26211;SDS011;13951;49.516;6.094;2024-03-22T00:40:22;5.30;;;3.20;;
26211;SDS011;13951;49.516;6.094;2024-03-22T00:42:54;4.00;;;2.73;;
26211;SDS011;13951;49.516;6.094;2024-03-22T00:45:27;4.13;;;2.83;;
26211;SDS011;13951;49.516;6.094;2024-03-22T00:47:59;4.77;;;2.60;;
26211;SDS011;13951;49.516;6.094;2024-03-22T00:50:32;5.37;;;3.03;;
26211;SDS011;13951;49.516;6.094;2024-03-22T00:54:20;3.67;;;2.80;;
26211;SDS011;13951;49.516;6.094;2024-03-22T00:57:09;5.57;;;3.03;;
26211;SDS011;13951;49.516;6.094;2024-03-22T00:59:59;5.13;;;2.50;;
26211;SDS011;13951;49.516;6.094;2024-03-22T01:20:05;4.77;;;2.63;;
26211;SDS011;13951;49.516;6.094;2024-03-22T01:23:35;4.23;;;2.70;;
26211;SDS011;13951;49.516;6.094;2024-03-22T01:31:47;4.07;;;2.80;;
26211;SDS011;13951;49.516;6.094;2024-03-22T01:35:16;5.10;;;3.00;;
26211;SDS011;13951;49.516;6.094;2024-03-22T01:39:11;4.10;;;2.60;;
26211;SDS011;13951;49.516;6.094;2024-03-22T01:41:43;3.27;;;2.50;;
26211;SDS011;13951;49.516;6.094;2024-03-22T01:44:15;2.43;;;1.93;;
26211;SDS011;13951;49.516;6.094;2024-03-22T01:47:55;3.40;;;2.77;;
26211;SDS011;13951;49.516;6.094;2024-03-22T01:50:43;4.30;;;2.63;;
26211;SDS011;13951;49.516;6.094;2024-03-22T01:53:34;3.40;;;2.17;;
26211;SDS011;13951;49.516;6.094;2024-03-22T01:56:24;3.60;;;2.63;;
26211;SDS011;13951;49.516;6.094;2024-03-22T01:59:12;3.50;;;2.30;;
26211;SDS011;13951;49.516;6.094;2024-03-22T02:02:01;3.40;;;2.30;;
26211;SDS011;13951;49.516;6.094;2024-03-22T02:04:57;3.77;;;2.60;;
26211;SDS011;13951;49.516;6.094;2024-03-22T02:07:55;4.37;;;2.50;;
26211;SDS011;13951;49.516;6.094;2024-03-22T02:17:52;3.23;;;2.53;;
26211;SDS011;13951;49.516;6.094;2024-03-22T02:21:19;3.60;;;2.70;;
26211;SDS011;13951;49.516;6.094;2024-03-22T02:23:52;3.90;;;2.63;;
26211;SDS011;13951;49.516;6.094;2024-03-22T02:26:24;3.87;;;2.37;;
26211;SDS011;13951;49.516;6.094;2024-03-22T02:28:56;3.57;;;2.47;;
26211;SDS011;13951;49.516;6.094;2024-03-22T02:31:28;4.93;;;2.80;;
26211;SDS011;13951;49.516;6.094;2024-03-22T02:34:01;3.50;;;2.20;;
26211;SDS011;13951;49.516;6.094;2024-03-22T02:36:33;3.67;;;2.47;;
26211;SDS011;13951;49.516;6.094;2024-03-22T02:39:05;3.90;;;2.57;;
26211;SDS011;13951;49.516;6.094;2024-03-22T02:41:38;3.47;;;2.40;;
26211;SDS011;13951;49.516;6.094;2024-03-22T02:44:10;4.60;;;2.53;;
26211;SDS011;13951;49.516;6.094;2024-03-22T02:46:42;5.03;;;2.70;;
26211;SDS011;13951;49.516;6.094;2024-03-22T02:49:15;3.83;;;2.53;;
26211;SDS011;13951;49.516;6.094;2024-03-22T02:52:03;3.83;;;2.73;;
26211;SDS011;13951;49.516;6.094;2024-03-22T02:54:52;4.50;;;2.73;;
26211;SDS011;13951;49.516;6.094;2024-03-22T02:57:41;4.23;;;2.60;;
26211;SDS011;13951;49.516;6.094;2024-03-22T03:00:31;4.63;;;2.50;;
26211;SDS011;13951;49.516;6.094;2024-03-22T03:03:21;4.83;;;2.40;;
26211;SDS011;13951;49.516;6.094;2024-03-22T03:06:11;4.57;;;2.37;;
26211;SDS011;13951;49.516;6.094;2024-03-22T03:15:27;2.33;;;2.10;;
26211;SDS011;13951;49.516;6.094;2024-03-22T03:18:19;4.07;;;2.20;;
26211;SDS011;13951;49.516;6.094;2024-03-22T03:21:21;4.57;;;2.80;;
26211;SDS011;13951;49.516;6.094;2024-03-22T03:28:13;3.90;;;2.37;;
26211;SDS011;13951;49.516;6.094;2024-03-22T03:30:45;3.57;;;2.57;;
26211;SDS011;13951;49.516;6.094;2024-03-22T03:36:27;5.00;;;2.53;;
26211;SDS011;13951;49.516;6.094;2024-03-22T03:39:22;3.80;;;2.23;;
26211;SDS011;13951;49.516;6.094;2024-03-22T03:42:16;4.07;;;2.57;;
26211;SDS011;13951;49.516;6.094;2024-03-22T03:45:04;3.00;;;2.17;;
26211;SDS011;13951;49.516;6.094;2024-03-22T03:47:36;4.30;;;2.60;;
26211;SDS011;13951;49.516;6.094;2024-03-22T03:50:24;6.27;;;2.60;;
26211;SDS011;13951;49.516;6.094;2024-03-22T03:53:31;4.30;;;2.80;;
26211;SDS011;13951;49.516;6.094;2024-03-22T03:56:20;3.87;;;2.50;;
26211;SDS011;13951;49.516;6.094;2024-03-22T04:02:45;4.40;;;2.83;;
26211;SDS011;13951;49.516;6.094;2024-03-22T04:10:04;4.37;;;2.47;;
26211;SDS011;13951;49.516;6.094;2024-03-22T04:17:40;3.83;;;2.70;;
26211;SDS011;13951;49.516;6.094;2024-03-22T04:20:13;5.10;;;2.70;;
26211;SDS011;13951;49.516;6.094;2024-03-22T04:23:25;6.20;;;2.73;;
26211;SDS011;13951;49.516;6.094;2024-03-22T04:26:00;6.67;;;2.70;;
26211;SDS011;13951;49.516;6.094;2024-03-22T04:28:48;4.43;;;2.90;;
26211;SDS011;13951;49.516;6.094;2024-03-22T04:31:42;3.50;;;1.97;;
26211;SDS011;13951;49.516;6.094;2024-03-22T04:34:43;2.53;;;2.23;;
26211;SDS011;13951;49.516;6.094;2024-03-22T04:37:33;5.20;;;2.50;;
26211;SDS011;13951;49.516;6.094;2024-03-22T04:41:09;5.00;;;2.37;;
26211;SDS011;13951;49.516;6.094;2024-03-22T04:47:50;4.07;;;2.40;;
26211;SDS011;13951;49.516;6.094;2024-03-22T04:50:24;4.60;;;2.33;;
26211;SDS011;13951;49.516;6.094;2024-03-22T04:53:30;3.60;;;2.40;;
26211;SDS011;13951;49.516;6.094;2024-03-22T04:59:33;7.80;;;3.13;;
26211;SDS011;13951;49.516;6.094;2024-03-22T05:02:41;4.20;;;2.80;;
26211;SDS011;13951;49.516;6.094;2024-03-22T05:05:49;5.17;;;3.37;;
26211;SDS011;13951;49.516;6.094;2024-03-22T05:15:22;7.37;;;3.80;;
26211;SDS011;13951;49.516;6.094;2024-03-22T05:18:57;6.63;;;3.90;;
26211;SDS011;13951;49.516;6.094;2024-03-22T05:21:29;9.23;;;4.60;;
26211;SDS011;13951;49.516;6.094;2024-03-22T05:24:02;8.47;;;4.00;;
26211;SDS011;13951;49.516;6.094;2024-03-22T05:26:50;6.80;;;4.33;;
26211;SDS011;13951;49.516;6.094;2024-03-22T05:30:12;8.73;;;4.70;;
26211;SDS011;13951;49.516;6.094;2024-03-22T05:33:46;8.20;;;4.40;;
26211;SDS011;13951;49.516;6.094;2024-03-22T05:36:42;8.30;;;5.27;;
26211;SDS011;13951;49.516;6.094;2024-03-22T05:39:14;7.03;;;4.80;;
26211;SDS011;13951;49.516;6.094;2024-03-22T05:45:23;7.40;;;4.73;;
26211;SDS011;13951;49.516;6.094;2024-03-22T05:47:55;7.13;;;4.57;;
26211;SDS011;13951;49.516;6.094;2024-03-22T05:50:27;7.37;;;4.90;;
26211;SDS011;13951;49.516;6.094;2024-03-22T05:53:01;8.47;;;4.40;;
26211;SDS011;13951;49.516;6.094;2024-03-22T05:59:51;9.73;;;4.97;;
26211;SDS011;13951;49.516;6.094;2024-03-22T06:02:24;7.73;;;5.23;;
26211;SDS011;13951;49.516;6.094;2024-03-22T06:04:56;8.00;;;5.10;;
26211;SDS011;13951;49.516;6.094;2024-03-22T06:07:29;8.50;;;5.00;;
26211;SDS011;13951;49.516;6.094;2024-03-22T06:10:01;28.70;;;15.67;;
26211;SDS011;13951;49.516;6.094;2024-03-22T06:12:34;32.60;;;17.50;;
26211;SDS011;13951;49.516;6.094;2024-03-22T06:15:07;10.50;;;6.60;;
26211;SDS011;13951;49.516;6.094;2024-03-22T06:17:39;8.80;;;4.97;;
26211;SDS011;13951;49.516;6.094;2024-03-22T06:20:12;7.23;;;4.87;;
26211;SDS011;13951;49.516;6.094;2024-03-22T06:22:44;7.63;;;4.47;;
26211;SDS011;13951;49.516;6.094;2024-03-22T06:25:16;10.07;;;4.97;;
26211;SDS011;13951;49.516;6.094;2024-03-22T06:27:49;6.87;;;4.43;;
26211;SDS011;13951;49.516;6.094;2024-03-22T06:30:21;8.17;;;4.90;;
26211;SDS011;13951;49.516;6.094;2024-03-22T06:32:54;8.20;;;4.83;;
26211;SDS011;13951;49.516;6.094;2024-03-22T06:35:26;9.67;;;5.20;;
26211;SDS011;13951;49.516;6.094;2024-03-22T06:37:58;13.07;;;4.67;;
26211;SDS011;13951;49.516;6.094;2024-03-22T06:40:33;8.47;;;4.70;;
26211;SDS011;13951;49.516;6.094;2024-03-22T06:43:06;11.57;;;4.50;;
26211;SDS011;13951;49.516;6.094;2024-03-22T06:45:38;8.47;;;4.47;;
26211;SDS011;13951;49.516;6.094;2024-03-22T06:48:10;8.53;;;5.00;;
26211;SDS011;13951;49.516;6.094;2024-03-22T06:50:43;8.83;;;4.60;;
26211;SDS011;13951;49.516;6.094;2024-03-22T06:53:15;8.40;;;4.40;;
26211;SDS011;13951;49.516;6.094;2024-03-22T06:55:47;7.93;;;4.37;;
26211;SDS011;13951;49.516;6.094;2024-03-22T06:58:20;8.20;;;4.47;;
26211;SDS011;13951;49.516;6.094;2024-03-22T07:00:52;7.67;;;4.53;;
26211;SDS011;13951;49.516;6.094;2024-03-22T07:03:24;7.73;;;4.63;;
26211;SDS011;13951;49.516;6.094;2024-03-22T07:05:56;7.70;;;4.40;;
26211;SDS011;13951;49.516;6.094;2024-03-22T07:08:29;9.47;;;5.43;;
26211;SDS011;13951;49.516;6.094;2024-03-22T07:11:04;7.93;;;4.47;;
26211;SDS011;13951;49.516;6.094;2024-03-22T07:13:37;7.43;;;4.03;;
26211;SDS011;13951;49.516;6.094;2024-03-22T07:16:09;6.83;;;4.30;;
26211;SDS011;13951;49.516;6.094;2024-03-22T07:18:41;8.97;;;4.43;;
26211;SDS011;13951;49.516;6.094;2024-03-22T07:21:13;6.73;;;3.73;;
26211;SDS011;13951;49.516;6.094;2024-03-22T07:23:46;8.00;;;4.13;;
26211;SDS011;13951;49.516;6.094;2024-03-22T07:26:18;8.13;;;4.27;;
26211;SDS011;13951;49.516;6.094;2024-03-22T07:28:50;7.57;;;4.50;;
26211;SDS011;13951;49.516;6.094;2024-03-22T07:31:22;7.30;;;3.67;;
26211;SDS011;13951;49.516;6.094;2024-03-22T07:33:54;8.93;;;4.60;;
26211;SDS011;13951;49.516;6.094;2024-03-22T07:36:27;19.07;;;5.07;;
26211;SDS011;13951;49.516;6.094;2024-03-22T07:38:59;8.17;;;3.83;;
26211;SDS011;13951;49.516;6.094;2024-03-22T07:41:32;6.50;;;4.33;;
26211;SDS011;13951;49.516;6.094;2024-03-22T07:44:04;9.67;;;4.93;;
26211;SDS011;13951;49.516;6.094;2024-03-22T07:46:36;8.27;;;5.17;;
26211;SDS011;13951;49.516;6.094;2024-03-22T07:49:08;12.63;;;5.43;;
26211;SDS011;13951;49.516;6.094;2024-03-22T07:51:44;11.60;;;5.40;;
26211;SDS011;13951;49.516;6.094;2024-03-22T07:54:20;10.97;;;4.30;;
26211;SDS011;13951;49.516;6.094;2024-03-22T07:56:53;10.00;;;5.30;;
26211;SDS011;13951;49.516;6.094;2024-03-22T07:59:25;9.40;;;5.17;;
26211;SDS011;13951;49.516;6.094;2024-03-22T08:01:57;10.97;;;4.97;;
26211;SDS011;13951;49.516;6.094;2024-03-22T08:04:29;7.90;;;4.97;;
26211;SDS011;13951;49.516;6.094;2024-03-22T08:07:02;7.33;;;4.50;;
26211;SDS011;13951;49.516;6.094;2024-03-22T08:09:34;7.23;;;4.70;;
26211;SDS011;13951;49.516;6.094;2024-03-22T08:12:06;7.80;;;4.57;;
26211;SDS011;13951;49.516;6.094;2024-03-22T08:14:39;11.43;;;6.40;;
26211;SDS011;13951;49.516;6.094;2024-03-22T08:17:11;10.13;;;5.67;;
26211;SDS011;13951;49.516;6.094;2024-03-22T08:19:43;12.23;;;5.40;;
26211;SDS011;13951;49.516;6.094;2024-03-22T08:22:16;10.10;;;5.20;;
26211;SDS011;13951;49.516;6.094;2024-03-22T08:24:48;7.07;;;4.97;;
26211;SDS011;13951;49.516;6.094;2024-03-22T08:27:20;8.23;;;4.83;;
26211;SDS011;13951;49.516;6.094;2024-03-22T08:29:52;12.10;;;6.33;;
26211;SDS011;13951;49.516;6.094;2024-03-22T08:32:24;10.33;;;5.73;;
26211;SDS011;13951;49.516;6.094;2024-03-22T08:34:56;10.63;;;5.73;;
26211;SDS011;13951;49.516;6.094;2024-03-22T08:37:29;14.47;;;6.23;;
26211;SDS011;13951;49.516;6.094;2024-03-22T08:40:01;13.40;;;6.20;;
26211;SDS011;13951;49.516;6.094;2024-03-22T08:42:35;10.93;;;6.00;;
26211;SDS011;13951;49.516;6.094;2024-03-22T08:45:08;9.27;;;5.70;;
26211;SDS011;13951;49.516;6.094;2024-03-22T08:47:40;12.10;;;6.73;;
26211;SDS011;13951;49.516;6.094;2024-03-22T08:50:13;12.83;;;6.70;;
26211;SDS011;13951;49.516;6.094;2024-03-22T08:52:45;12.77;;;6.77;;
26211;SDS011;13951;49.516;6.094;2024-03-22T08:55:18;12.10;;;6.83;;
26211;SDS011;13951;49.516;6.094;2024-03-22T08:57:50;13.60;;;7.17;;
26211;SDS011;13951;49.516;6.094;2024-03-22T09:00:22;16.33;;;8.83;;
26211;SDS011;13951;49.516;6.094;2024-03-22T09:02:54;16.27;;;8.77;;
26211;SDS011;13951;49.516;6.094;2024-03-22T09:05:26;14.87;;;8.47;;
26211;SDS011;13951;49.516;6.094;2024-03-22T09:07:59;13.70;;;7.90;;
26211;SDS011;13951;49.516;6.094;2024-03-22T09:10:32;13.50;;;7.67;;
26211;SDS011;13951;49.516;6.094;2024-03-22T09:13:05;12.93;;;8.23;;
26211;SDS011;13951;49.516;6.094;2024-03-22T09:15:37;13.83;;;8.37;;
26211;SDS011;13951;49.516;6.094;2024-03-22T09:18:09;16.80;;;9.50;;
26211;SDS011;13951;49.516;6.094;2024-03-22T09:20:41;15.47;;;9.93;;
26211;SDS011;13951;49.516;6.094;2024-03-22T09:23:14;15.83;;;9.07;;
26211;SDS011;13951;49.516;6.094;2024-03-22T09:25:46;15.70;;;9.47;;
26211;SDS011;13951;49.516;6.094;2024-03-22T09:28:21;16.27;;;9.23;;
26211;SDS011;13951;49.516;6.094;2024-03-22T09:30:53;14.33;;;9.27;;
26211;SDS011;13951;49.516;6.094;2024-03-22T09:33:25;13.67;;;8.93;;
26211;SDS011;13951;49.516;6.094;2024-03-22T09:35:57;15.30;;;9.67;;
26211;SDS011;13951;49.516;6.094;2024-03-22T09:38:30;15.07;;;9.17;;
26211;SDS011;13951;49.516;6.094;2024-03-22T09:41:02;14.60;;;9.30;;
26211;SDS011;13951;49.516;6.094;2024-03-22T09:43:34;14.37;;;8.80;;
26211;SDS011;13951;49.516;6.094;2024-03-22T09:46:07;16.67;;;8.83;;
26211;SDS011;13951;49.516;6.094;2024-03-22T09:48:39;13.40;;;8.80;;
26211;SDS011;13951;49.516;6.094;2024-03-22T09:51:13;13.53;;;8.90;;
26211;SDS011;13951;49.516;6.094;2024-03-22T09:53:51;15.17;;;9.07;;
26211;SDS011;13951;49.516;6.094;2024-03-22T09:56:24;14.43;;;8.30;;
26211;SDS011;13951;49.516;6.094;2024-03-22T09:58:57;14.03;;;8.60;;
26211;SDS011;13951;49.516;6.094;2024-03-22T10:01:29;12.87;;;8.00;;
26211;SDS011;13951;49.516;6.094;2024-03-22T10:04:02;13.27;;;7.77;;
26211;SDS011;13951;49.516;6.094;2024-03-22T10:06:35;13.97;;;8.23;;
26211;SDS011;13951;49.516;6.094;2024-03-22T10:09:07;12.27;;;7.83;;
26211;SDS011;13951;49.516;6.094;2024-03-22T10:11:39;12.80;;;7.30;;
26211;SDS011;13951;49.516;6.094;2024-03-22T10:14:12;11.13;;;7.10;;
26211;SDS011;13951;49.516;6.094;2024-03-22T10:16:44;14.33;;;7.60;;
26211;SDS011;13951;49.516;6.094;2024-03-22T10:19:16;11.53;;;7.33;;
26211;SDS011;13951;49.516;6.094;2024-03-22T10:22:01;11.10;;;7.53;;
26211;SDS011;13951;49.516;6.094;2024-03-22T10:24:34;15.23;;;7.70;;
26211;SDS011;13951;49.516;6.094;2024-03-22T10:27:06;11.63;;;7.30;;
26211;SDS011;13951;49.516;6.094;2024-03-22T10:29:38;11.57;;;7.00;;
26211;SDS011;13951;49.516;6.094;2024-03-22T10:32:10;13.90;;;8.00;;
26211;SDS011;13951;49.516;6.094;2024-03-22T10:34:43;11.77;;;7.80;;
26211;SDS011;13951;49.516;6.094;2024-03-22T10:37:16;10.70;;;7.80;;
26211;SDS011;13951;49.516;6.094;2024-03-22T10:39:49;10.70;;;7.43;;
26211;SDS011;13951;49.516;6.094;2024-03-22T10:42:23;10.20;;;7.50;;
26211;SDS011;13951;49.516;6.094;2024-03-22T10:44:55;14.00;;;7.30;;
26211;SDS011;13951;49.516;6.094;2024-03-22T10:47:27;11.57;;;7.97;;
26211;SDS011;13951;49.516;6.094;2024-03-22T10:52:35;14.97;;;8.33;;
26211;SDS011;13951;49.516;6.094;2024-03-22T10:55:10;11.07;;;7.87;;
26211;SDS011;13951;49.516;6.094;2024-03-22T10:57:45;16.13;;;8.27;;
26211;SDS011;13951;49.516;6.094;2024-03-22T11:00:26;13.07;;;8.50;;
26211;SDS011;13951;49.516;6.094;2024-03-22T11:02:59;12.67;;;8.37;;
26211;SDS011;13951;49.516;6.094;2024-03-22T11:05:33;12.30;;;8.00;;
26211;SDS011;13951;49.516;6.094;2024-03-22T11:08:06;13.23;;;7.77;;
26211;SDS011;13951;49.516;6.094;2024-03-22T11:10:38;13.20;;;8.53;;
26211;SDS011;13951;49.516;6.094;2024-03-22T11:13:10;13.37;;;7.63;;
26211;SDS011;13951;49.516;6.094;2024-03-22T11:15:43;12.40;;;8.13;;
26211;SDS011;13951;49.516;6.094;2024-03-22T11:18:15;16.60;;;8.17;;
26211;SDS011;13951;49.516;6.094;2024-03-22T11:20:48;16.50;;;9.80;;
26211;SDS011;13951;49.516;6.094;2024-03-22T11:23:20;15.23;;;9.17;;
26211;SDS011;13951;49.516;6.094;2024-03-22T11:25:52;13.90;;;8.43;;
26211;SDS011;13951;49.516;6.094;2024-03-22T11:28:25;15.83;;;9.87;;
26211;SDS011;13951;49.516;6.094;2024-03-22T11:30:57;14.90;;;9.50;;
26211;SDS011;13951;49.516;6.094;2024-03-22T11:33:30;15.67;;;9.50;;
26211;SDS011;13951;49.516;6.094;2024-03-22T11:36:03;14.97;;;9.57;;
26211;SDS011;13951;49.516;6.094;2024-03-22T11:38:35;18.50;;;10.93;;
26211;SDS011;13951;49.516;6.094;2024-03-22T11:41:07;16.70;;;10.20;;
26211;SDS011;13951;49.516;6.094;2024-03-22T11:43:40;17.50;;;10.53;;
26211;SDS011;13951;49.516;6.094;2024-03-22T11:46:12;18.30;;;10.17;;
26211;SDS011;13951;49.516;6.094;2024-03-22T11:48:44;18.67;;;10.07;;
26211;SDS011;13951;49.516;6.094;2024-03-22T11:51:16;20.77;;;10.07;;
26211;SDS011;13951;49.516;6.094;2024-03-22T11:53:52;18.20;;;10.20;;
26211;SDS011;13951;49.516;6.094;2024-03-22T11:56:25;14.63;;;8.33;;
26211;SDS011;13951;49.516;6.094;2024-03-22T11:58:58;11.80;;;7.67;;
26211;SDS011;13951;49.516;6.094;2024-03-22T12:01:32;13.10;;;7.90;;
26211;SDS011;13951;49.516;6.094;2024-03-22T12:04:04;11.73;;;7.20;;
26211;SDS011;13951;49.516;6.094;2024-03-22T12:06:38;12.87;;;7.30;;
26211;SDS011;13951;49.516;6.094;2024-03-22T12:09:13;14.50;;;8.07;;
26211;SDS011;13951;49.516;6.094;2024-03-22T12:11:45;11.80;;;7.50;;
26211;SDS011;13951;49.516;6.094;2024-03-22T12:14:18;12.50;;;7.97;;
26211;SDS011;13951;49.516;6.094;2024-03-22T12:16:51;11.33;;;7.67;;
26211;SDS011;13951;49.516;6.094;2024-03-22T12:19:23;12.53;;;7.47;;
26211;SDS011;13951;49.516;6.094;2024-03-22T12:21:56;10.43;;;7.23;;
26211;SDS011;13951;49.516;6.094;2024-03-22T12:24:28;12.97;;;8.00;;
26211;SDS011;13951;49.516;6.094;2024-03-22T12:27:01;14.37;;;7.33;;
26211;SDS011;13951;49.516;6.094;2024-03-22T12:29:33;11.00;;;7.63;;
26211;SDS011;13951;49.516;6.094;2024-03-22T12:32:06;15.25;;;7.88;;
26211;SDS011;13951;49.516;6.094;2024-03-22T12:34:39;11.63;;;7.10;;
26211;SDS011;13951;49.516;6.094;2024-03-22T12:37:13;11.98;;;7.38;;
26211;SDS011;13951;49.516;6.094;2024-03-22T12:39:46;12.20;;;7.80;;
26211;SDS011;13951;49.516;6.094;2024-03-22T12:42:19;11.13;;;7.45;;
26211;SDS011;13951;49.516;6.094;2024-03-22T12:44:51;10.52;;;6.90;;
26211;SDS011;13951;49.516;6.094;2024-03-22T12:47:23;7.75;;;5.30;;
26211;SDS011;13951;49.516;6.094;2024-03-22T12:49:55;11.57;;;6.22;;
26211;SDS011;13951;49.516;6.094;2024-03-22T12:52:27;8.48;;;5.50;;
26211;SDS011;13951;49.516;6.094;2024-03-22T12:54:59;8.05;;;5.07;;
26211;SDS011;13951;49.516;6.094;2024-03-22T12:57:32;7.72;;;4.63;;
26211;SDS011;13951;49.516;6.094;2024-03-22T13:00:05;5.85;;;4.20;;
26211;SDS011;13951;49.516;6.094;2024-03-22T13:02:44;5.63;;;3.65;;
26211;SDS011;13951;49.516;6.094;2024-03-22T13:05:17;4.25;;;3.47;;
26211;SDS011;13951;49.516;6.094;2024-03-22T13:07:49;5.95;;;3.92;;
26211;SDS011;13951;49.516;6.094;2024-03-22T13:10:21;6.10;;;3.50;;
26211;SDS011;13951;49.516;6.094;2024-03-22T13:12:53;8.80;;;3.33;;
26211;SDS011;13951;49.516;6.094;2024-03-22T13:15:25;5.93;;;3.40;;
26211;SDS011;13951;49.516;6.094;2024-03-22T13:17:57;6.53;;;3.45;;
26211;SDS011;13951;49.516;6.094;2024-03-22T13:20:29;6.47;;;4.05;;
26211;SDS011;13951;49.516;6.094;2024-03-22T13:23:02;6.82;;;3.78;;
26211;SDS011;13951;49.516;6.094;2024-03-22T13:25:34;6.93;;;3.70;;
26211;SDS011;13951;49.516;6.094;2024-03-22T13:28:08;6.63;;;3.90;;
26211;SDS011;13951;49.516;6.094;2024-03-22T13:30:40;6.82;;;3.97;;
26211;SDS011;13951;49.516;6.094;2024-03-22T13:33:13;7.07;;;4.13;;
26211;SDS011;13951;49.516;6.094;2024-03-22T13:35:45;6.38;;;4.00;;
26211;SDS011;13951;49.516;6.094;2024-03-22T13:38:17;7.78;;;3.75;;
26211;SDS011;13951;49.516;6.094;2024-03-22T13:40:53;8.00;;;4.28;;
26211;SDS011;13951;49.516;6.094;2024-03-22T13:43:28;7.72;;;4.35;;
26211;SDS011;13951;49.516;6.094;2024-03-22T13:46:00;7.55;;;4.10;;
26211;SDS011;13951;49.516;6.094;2024-03-22T13:48:32;7.00;;;4.20;;
26211;SDS011;13951;49.516;6.094;2024-03-22T13:51:04;6.78;;;4.50;;
26211;SDS011;13951;49.516;6.094;2024-03-22T13:53:36;6.93;;;4.18;;
26211;SDS011;13951;49.516;6.094;2024-03-22T13:56:09;9.25;;;4.40;;
26211;SDS011;13951;49.516;6.094;2024-03-22T13:58:41;14.23;;;7.37;;
26211;SDS011;13951;49.516;6.094;2024-03-22T14:01:13;6.13;;;4.38;;
26211;SDS011;13951;49.516;6.094;2024-03-22T14:03:45;6.00;;;3.90;;
26211;SDS011;13951;49.516;6.094;2024-03-22T14:06:17;5.47;;;3.63;;
26211;SDS011;13951;49.516;6.094;2024-03-22T14:08:49;11.07;;;4.20;;
26211;SDS011;13951;49.516;6.094;2024-03-22T14:11:21;7.88;;;4.43;;
26211;SDS011;13951;49.516;6.094;2024-03-22T14:13:53;5.40;;;3.90;;
26211;SDS011;13951;49.516;6.094;2024-03-22T14:16:25;6.25;;;3.72;;
26211;SDS011;13951;49.516;6.094;2024-03-22T14:18:57;7.05;;;3.67;;
26211;SDS011;13951;49.516;6.094;2024-03-22T14:21:29;5.10;;;3.47;;
26211;SDS011;13951;49.516;6.094;2024-03-22T14:24:01;5.77;;;3.93;;
26211;SDS011;13951;49.516;6.094;2024-03-22T14:26:34;6.40;;;3.97;;
26211;SDS011;13951;49.516;6.094;2024-03-22T14:29:13;6.57;;;3.83;;
26211;SDS011;13951;49.516;6.094;2024-03-22T14:31:45;7.40;;;3.80;;
26211;SDS011;13951;49.516;6.094;2024-03-22T14:34:18;10.55;;;4.35;;
26211;SDS011;13951;49.516;6.094;2024-03-22T14:36:49;6.43;;;3.93;;
26211;SDS011;13951;49.516;6.094;2024-03-22T14:39:22;6.43;;;3.47;;
26211;SDS011;13951;49.516;6.094;2024-03-22T14:41:54;5.55;;;3.55;;
26211;SDS011;13951;49.516;6.094;2024-03-22T14:44:26;6.30;;;3.60;;
26211;SDS011;13951;49.516;6.094;2024-03-22T14:46:58;5.30;;;3.50;;
26211;SDS011;13951;49.516;6.094;2024-03-22T14:49:30;6.00;;;3.93;;
26211;SDS011;13951;49.516;6.094;2024-03-22T14:52:02;5.80;;;3.70;;
26211;SDS011;13951;49.516;6.094;2024-03-22T14:54:35;4.67;;;3.20;;
26211;SDS011;13951;49.516;6.094;2024-03-22T14:57:07;6.17;;;3.17;;
26211;SDS011;13951;49.516;6.094;2024-03-22T14:59:40;7.63;;;3.67;;
26211;SDS011;13951;49.516;6.094;2024-03-22T15:02:12;5.70;;;3.73;;
26211;SDS011;13951;49.516;6.094;2024-03-22T15:04:44;5.00;;;3.70;;
26211;SDS011;13951;49.516;6.094;2024-03-22T15:07:16;6.43;;;4.00;;
26211;SDS011;13951;49.516;6.094;2024-03-22T15:09:48;6.20;;;4.10;;
26211;SDS011;13951;49.516;6.094;2024-03-22T15:12:21;6.13;;;4.00;;
26211;SDS011;13951;49.516;6.094;2024-03-22T15:14:53;6.60;;;3.97;;
26211;SDS011;13951;49.516;6.094;2024-03-22T15:17:25;6.57;;;4.22;;
26211;SDS011;13951;49.516;6.094;2024-03-22T15:19:57;6.30;;;4.33;;
26211;SDS011;13951;49.516;6.094;2024-03-22T15:22:30;5.83;;;4.30;;
26211;SDS011;13951;49.516;6.094;2024-03-22T15:25:02;8.80;;;4.43;;
26211;SDS011;13951;49.516;6.094;2024-03-22T15:27:34;7.30;;;4.43;;
26211;SDS011;13951;49.516;6.094;2024-03-22T15:30:06;6.50;;;4.77;;
26211;SDS011;13951;49.516;6.094;2024-03-22T15:32:39;8.00;;;4.70;;
26211;SDS011;13951;49.516;6.094;2024-03-22T15:35:15;6.93;;;4.13;;
26211;SDS011;13951;49.516;6.094;2024-03-22T15:37:47;10.47;;;4.50;;
26211;SDS011;13951;49.516;6.094;2024-03-22T15:40:19;5.80;;;4.23;;
26211;SDS011;13951;49.516;6.094;2024-03-22T15:42:51;8.40;;;4.67;;
26211;SDS011;13951;49.516;6.094;2024-03-22T15:45:23;8.23;;;5.43;;
26211;SDS011;13951;49.516;6.094;2024-03-22T15:47:55;7.90;;;4.90;;
26211;SDS011;13951;49.516;6.094;2024-03-22T15:50:27;7.00;;;4.80;;
26211;SDS011;13951;49.516;6.094;2024-03-22T15:53:00;7.10;;;4.37;;
26211;SDS011;13951;49.516;6.094;2024-03-22T15:55:32;6.73;;;4.77;;
26211;SDS011;13951;49.516;6.094;2024-03-22T15:58:04;8.47;;;4.47;;
26211;SDS011;13951;49.516;6.094;2024-03-22T16:00:37;6.83;;;4.60;;
26211;SDS011;13951;49.516;6.094;2024-03-22T16:03:09;5.80;;;4.47;;
26211;SDS011;13951;49.516;6.094;2024-03-22T16:05:49;5.83;;;4.27;;
26211;SDS011;13951;49.516;6.094;2024-03-22T16:08:22;6.67;;;4.27;;
26211;SDS011;13951;49.516;6.094;2024-03-22T16:10:54;5.20;;;2.97;;
26211;SDS011;13951;49.516;6.094;2024-03-22T16:13:26;3.63;;;2.73;;
26211;SDS011;13951;49.516;6.094;2024-03-22T16:15:58;4.93;;;2.80;;
26211;SDS011;13951;49.516;6.094;2024-03-22T16:18:30;4.27;;;2.23;;
26211;SDS011;13951;49.516;6.094;2024-03-22T16:21:03;4.13;;;2.67;;
26211;SDS011;13951;49.516;6.094;2024-03-22T16:23:35;4.47;;;2.57;;
26211;SDS011;13951;49.516;6.094;2024-03-22T16:26:08;3.37;;;2.60;;
26211;SDS011;13951;49.516;6.094;2024-03-22T16:28:40;5.50;;;2.47;;
26211;SDS011;13951;49.516;6.094;2024-03-22T16:31:12;2.93;;;2.33;;
26211;SDS011;13951;49.516;6.094;2024-03-22T16:33:44;5.83;;;2.57;;
26211;SDS011;13951;49.516;6.094;2024-03-22T16:36:16;3.50;;;2.30;;
26211;SDS011;13951;49.516;6.094;2024-03-22T16:38:48;3.70;;;2.57;;
26211;SDS011;13951;49.516;6.094;2024-03-22T16:41:20;3.70;;;2.43;;
26211;SDS011;13951;49.516;6.094;2024-03-22T16:43:52;5.13;;;2.70;;
26211;SDS011;13951;49.516;6.094;2024-03-22T16:46:25;3.77;;;2.47;;
26211;SDS011;13951;49.516;6.094;2024-03-22T16:48:58;3.43;;;2.70;;
26211;SDS011;13951;49.516;6.094;2024-03-22T16:51:30;5.93;;;2.90;;
26211;SDS011;13951;49.516;6.094;2024-03-22T16:54:02;5.07;;;3.23;;
26211;SDS011;13951;49.516;6.094;2024-03-22T16:56:37;4.67;;;3.30;;
26211;SDS011;13951;49.516;6.094;2024-03-22T16:59:09;5.87;;;3.33;;
26211;SDS011;13951;49.516;6.094;2024-03-22T17:01:42;5.80;;;3.67;;
26211;SDS011;13951;49.516;6.094;2024-03-22T17:04:14;5.07;;;3.40;;
26211;SDS011;13951;49.516;6.094;2024-03-22T17:06:46;5.33;;;3.97;;
26211;SDS011;13951;49.516;6.094;2024-03-22T17:09:18;4.80;;;3.37;;